Time;durP1;ratioP1;P1;durP2;ratioP2;P2;SDS_P1;SDS_P2;PMS_P1;PMS_P2;Temp;Humidity;BMP_temperature;BMP_pressure;BME280_temperature;BME280_humidity;BME280_pressure;Samples;Min_cycle;Max_cycle;Signal;HPM_P1;HPM_P2
2023/02/05 00:00:21;;;;;;;38.93;17.80;;;7.70;99.90;;;;;;5034966;28;20203;-65
2023/02/05 00:03:07;;;;;;;38.03;17.37;;;7.70;99.90;;;;;;5027982;28;20632;-66
2023/02/05 00:05:36;;;;;;;38.03;18.10;;;7.70;99.90;;;;;;5028296;28;20308;-65
2023/02/05 00:08:04;;;;;;;31.23;17.53;;;7.70;99.90;;;;;;5061051;28;20695;-65
2023/02/05 00:10:33;;;;;;;32.13;17.40;;;7.70;99.90;;;;;;5030057;28;20277;-65
2023/02/05 00:13:01;;;;;;;28.97;16.53;;;7.70;99.90;;;;;;5040663;28;20193;-65
2023/02/05 00:15:31;;;;;;;29.00;16.23;;;7.70;99.90;;;;;;5057777;28;20665;-65
2023/02/05 00:18:01;;;;;;;30.43;15.80;;;7.60;99.90;;;;;;5028595;28;20217;-65
2023/02/05 00:20:30;;;;;;;28.93;16.43;;;7.60;99.90;;;;;;5031440;28;20197;-65
2023/02/05 00:22:58;;;;;;;29.07;14.90;;;7.60;99.90;;;;;;5040581;28;20200;-65
2023/02/05 00:25:26;;;;;;;26.97;14.93;;;7.60;99.90;;;;;;5025083;28;20202;-65
2023/02/05 00:27:55;;;;;;;27.63;14.77;;;7.60;99.90;;;;;;5031435;28;20193;-66
2023/02/05 00:30:23;;;;;;;26.93;15.13;;;7.60;99.90;;;;;;5071414;28;20331;-65
2023/02/05 00:32:53;;;;;;;29.27;15.73;;;7.60;99.90;;;;;;5033725;28;20199;-66
2023/02/05 00:35:21;;;;;;;32.27;14.90;;;7.60;99.90;;;;;;5033536;28;20223;-65
2023/02/05 00:37:49;;;;;;;26.33;13.97;;;7.60;99.90;;;;;;5032214;28;20194;-65
2023/02/05 00:40:18;;;;;;;25.70;13.47;;;7.60;99.90;;;;;;5041529;28;20197;-66
2023/02/05 00:42:46;;;;;;;26.07;13.43;;;7.50;99.90;;;;;;5033023;28;20769;-65
2023/02/05 00:45:15;;;;;;;26.30;14.33;;;7.60;99.90;;;;;;5034865;28;20190;-66
2023/02/05 00:47:43;;;;;;;23.87;13.77;;;7.60;99.90;;;;;;5034236;28;20201;-66
2023/02/05 00:50:13;;;;;;;23.63;12.93;;;7.50;99.90;;;;;;5060222;28;20193;-65
2023/02/05 00:52:42;;;;;;;23.03;13.63;;;7.60;99.90;;;;;;5022294;28;20201;-66
2023/02/05 00:55:10;;;;;;;23.10;13.37;;;7.60;99.90;;;;;;5066027;28;20217;-65
2023/02/05 00:57:39;;;;;;;22.83;12.77;;;7.60;99.90;;;;;;5037510;28;20564;-66
2023/02/05 01:00:09;;;;;;;21.37;12.80;;;7.50;99.90;;;;;;5035509;28;20202;-65
2023/02/05 01:02:38;;;;;;;20.13;12.60;;;7.50;99.90;;;;;;5065250;28;20204;-65
2023/02/05 01:05:07;;;;;;;21.10;11.80;;;7.50;99.90;;;;;;5032821;28;20190;-65
2023/02/05 01:07:37;;;;;;;18.40;11.53;;;7.50;99.90;;;;;;5030883;28;20659;-65
2023/02/05 01:10:06;;;;;;;17.47;11.47;;;7.60;99.90;;;;;;5032774;28;20216;-65
2023/02/05 01:12:34;;;;;;;21.77;11.17;;;7.60;99.90;;;;;;5046273;28;20213;-66
2023/02/05 01:15:05;;;;;;;14.90;10.10;;;7.50;99.90;;;;;;5033389;28;20209;-65
2023/02/05 01:17:34;;;;;;;15.50;9.97;;;7.50;99.90;;;;;;5033959;28;20185;-65
2023/02/05 01:20:04;;;;;;;14.87;9.77;;;7.50;99.90;;;;;;5048475;28;20197;-65
2023/02/05 01:22:33;;;;;;;11.17;8.63;;;7.50;99.90;;;;;;5064473;28;20206;-65
2023/02/05 01:25:02;;;;;;;14.13;8.63;;;7.50;99.90;;;;;;5033417;28;20284;-66
2023/02/05 01:27:32;;;;;;;14.87;9.13;;;7.50;99.90;;;;;;5032159;28;20281;-65
2023/02/05 01:30:01;;;;;;;14.03;8.70;;;7.50;99.90;;;;;;5037175;28;20269;-65
2023/02/05 01:32:29;;;;;;;12.50;8.50;;;7.50;99.90;;;;;;5066507;28;20229;-65
2023/02/05 01:34:58;;;;;;;12.40;8.97;;;7.50;99.90;;;;;;5033521;28;20547;-65
2023/02/05 01:37:26;;;;;;;12.00;8.50;;;7.50;99.90;;;;;;5035808;28;20524;-65
2023/02/05 01:39:54;;;;;;;11.93;8.63;;;7.50;99.90;;;;;;5033024;28;20220;-65
2023/02/05 01:42:26;;;;;;;12.07;8.27;;;7.50;99.90;;;;;;5033223;28;20655;-65
2023/02/05 01:45:31;;;;;;;10.10;7.73;;;7.50;99.90;;;;;;5030952;28;20193;-65
2023/02/05 01:48:02;;;;;;;13.17;7.87;;;7.50;99.90;;;;;;5042086;28;20208;-65
2023/02/05 01:50:34;;;;;;;11.67;8.37;;;7.50;99.90;;;;;;5029162;28;20201;-65
2023/02/05 01:53:06;;;;;;;12.33;7.43;;;7.50;99.90;;;;;;5034911;28;20205;-65
2023/02/05 01:55:37;;;;;;;9.00;7.07;;;7.50;99.90;;;;;;5034056;28;20217;-65
2023/02/05 01:58:08;;;;;;;7.90;6.67;;;7.50;99.90;;;;;;5033555;28;20200;-65
2023/02/05 02:00:36;;;;;;;11.83;6.83;;;7.40;99.90;;;;;;5032222;28;20198;-65
2023/02/05 02:03:05;;;;;;;7.07;6.33;;;7.40;99.90;;;;;;5034058;28;20239;-65
2023/02/05 02:05:34;;;;;;;10.23;6.13;;;7.50;99.90;;;;;;5031515;28;20198;-65
2023/02/05 02:08:03;;;;;;;7.93;6.63;;;7.50;99.90;;;;;;5031669;28;20256;-65
2023/02/05 02:10:33;;;;;;;8.63;6.63;;;7.50;99.90;;;;;;5029507;28;20204;-66
2023/02/05 02:13:02;;;;;;;10.87;6.40;;;7.50;99.90;;;;;;5026805;28;20713;-65
2023/02/05 02:15:32;;;;;;;9.43;6.43;;;7.40;99.90;;;;;;5027338;28;20213;-65
2023/02/05 02:20:48;;;;;;;9.47;6.00;;;7.40;99.90;;;;;;5034638;28;20200;-65
2023/02/05 02:23:27;;;;;;;8.90;6.10;;;7.40;99.90;;;;;;5028562;28;20443;-65
2023/02/05 02:26:10;;;;;;;8.67;6.30;;;7.40;99.90;;;;;;5028683;28;20216;-65
2023/02/05 02:28:45;;;;;;;11.20;6.50;;;7.30;99.90;;;;;;5030794;28;20539;-65
2023/02/05 02:31:23;;;;;;;7.50;5.97;;;7.30;99.90;;;;;;5028956;28;20225;-65
2023/02/05 02:33:57;;;;;;;9.10;6.00;;;7.30;99.90;;;;;;5025374;28;20193;-65
2023/02/05 02:36:30;;;;;;;10.87;6.00;;;7.30;99.90;;;;;;5043578;28;20283;-65
2023/02/05 02:39:05;;;;;;;8.83;5.97;;;7.30;99.90;;;;;;5039064;28;20194;-66
2023/02/05 02:41:41;;;;;;;7.53;6.30;;;7.30;99.90;;;;;;5031595;28;20197;-66
2023/02/05 02:44:14;;;;;;;7.67;6.00;;;7.30;99.90;;;;;;5033051;28;20197;-65
2023/02/05 02:46:47;;;;;;;8.83;6.07;;;7.30;99.90;;;;;;5030287;28;20189;-65
2023/02/05 02:49:21;;;;;;;10.70;6.63;;;7.30;99.90;;;;;;5029519;28;20224;-65
2023/02/05 02:51:51;;;;;;;8.93;5.67;;;7.30;99.90;;;;;;5044786;28;20208;-66
2023/02/05 02:54:22;;;;;;;7.70;5.70;;;7.30;99.90;;;;;;5037279;28;20202;-66
2023/02/05 02:56:52;;;;;;;6.90;5.50;;;7.30;99.90;;;;;;5038907;28;20215;-65
2023/02/05 02:59:25;;;;;;;8.33;5.50;;;7.30;99.90;;;;;;5029147;28;20189;-65
2023/02/05 03:01:57;;;;;;;8.50;5.87;;;7.20;99.90;;;;;;5056304;28;20207;-65
2023/02/05 03:04:29;;;;;;;7.37;5.87;;;7.20;99.90;;;;;;5030971;28;20219;-65
2023/02/05 03:07:06;;;;;;;7.67;5.87;;;7.20;99.90;;;;;;5063278;28;20189;-65
2023/02/05 03:09:41;;;;;;;8.90;5.73;;;7.20;99.90;;;;;;5028304;28;20707;-65
2023/02/05 03:12:10;;;;;;;8.20;5.43;;;7.20;99.90;;;;;;5028863;28;20196;-65
2023/02/05 03:14:43;;;;;;;11.30;6.00;;;7.10;99.90;;;;;;5032398;28;20196;-65
2023/02/05 03:17:17;;;;;;;9.10;5.67;;;7.10;99.90;;;;;;5033798;28;20213;-65
2023/02/05 03:19:48;;;;;;;8.17;5.93;;;7.10;99.90;;;;;;5045414;28;20296;-65
2023/02/05 03:22:17;;;;;;;8.23;6.00;;;7.10;99.90;;;;;;5029627;28;20193;-66
2023/02/05 03:24:45;;;;;;;11.50;6.67;;;7.10;99.90;;;;;;5027993;28;20201;-65
2023/02/05 03:27:13;;;;;;;9.30;6.13;;;7.10;99.90;;;;;;5035885;28;20194;-66
2023/02/05 03:29:44;;;;;;;12.90;6.40;;;7.10;99.90;;;;;;5031980;28;20200;-65
2023/02/05 03:32:23;;;;;;;11.43;7.07;;;7.20;99.90;;;;;;5045012;28;20217;-66
2023/02/05 03:34:59;;;;;;;15.10;6.80;;;7.10;99.90;;;;;;5025736;28;20272;-65
2023/02/05 03:37:38;;;;;;;9.30;6.93;;;7.10;99.90;;;;;;5029001;28;20228;-65
2023/02/05 03:40:16;;;;;;;10.07;6.77;;;7.20;99.90;;;;;;5032076;28;20193;-65
2023/02/05 03:42:53;;;;;;;10.13;7.20;;;7.20;99.90;;;;;;5029245;28;20212;-65
2023/02/05 03:45:45;;;;;;;10.33;7.10;;;7.20;99.90;;;;;;5028127;28;20550;-65
2023/02/05 03:48:27;;;;;;;12.50;7.57;;;7.20;99.90;;;;;;5019228;28;20750;-66
2023/02/05 03:51:07;;;;;;;11.77;7.70;;;7.20;99.90;;;;;;5027563;28;20662;-66
2023/02/05 03:53:39;;;;;;;11.40;8.37;;;7.20;99.90;;;;;;5023403;28;20206;-65
2023/02/05 03:56:12;;;;;;;14.20;7.83;;;7.20;99.90;;;;;;5025293;28;20651;-66
2023/02/05 03:58:43;;;;;;;15.03;8.03;;;7.20;99.90;;;;;;5031579;28;20806;-65
2023/02/05 04:01:13;;;;;;;13.00;8.63;;;7.20;99.90;;;;;;5030567;28;20200;-65
2023/02/05 04:03:42;;;;;;;11.43;8.17;;;7.20;99.90;;;;;;5062234;28;20269;-65
2023/02/05 04:06:10;;;;;;;13.67;8.83;;;7.20;99.90;;;;;;5039831;28;20285;-65
2023/02/05 04:08:39;;;;;;;14.57;9.13;;;7.20;99.90;;;;;;5032010;28;20233;-65
2023/02/05 04:11:08;;;;;;;19.20;9.10;;;7.20;99.90;;;;;;5035778;28;20197;-65
2023/02/05 04:13:36;;;;;;;13.50;9.57;;;7.20;99.90;;;;;;5027298;28;20194;-65
2023/02/05 04:16:46;;;;;;;15.27;9.60;;;7.30;99.90;;;;;;5028637;28;20241;-65
2023/02/05 04:19:54;;;;;;;16.53;10.03;;;7.20;99.90;;;;;;5031986;28;20201;-65
2023/02/05 04:23:03;;;;;;;13.50;9.90;;;7.20;99.90;;;;;;5032635;28;20498;-66
2023/02/05 04:26:11;;;;;;;18.87;10.63;;;7.20;99.90;;;;;;5031861;28;20603;-65
2023/02/05 04:29:19;;;;;;;15.77;10.47;;;7.30;99.90;;;;;;5029945;28;20233;-66
2023/02/05 04:32:29;;;;;;;14.07;10.60;;;7.30;99.90;;;;;;5022248;28;20213;-66
2023/02/05 04:35:38;;;;;;;28.17;11.80;;;7.20;99.90;;;;;;5027366;28;20722;-66
2023/02/05 04:38:46;;;;;;;22.00;11.83;;;7.20;99.90;;;;;;5025203;28;20267;-65
2023/02/05 04:41:55;;;;;;;21.17;12.23;;;7.20;99.90;;;;;;5034657;28;20224;-66
2023/02/05 04:45:04;;;;;;;22.37;13.77;;;7.20;99.90;;;;;;5024001;28;20265;-66
2023/02/05 04:48:14;;;;;;;26.70;14.23;;;7.20;99.90;;;;;;5029530;28;20201;-66
2023/02/05 04:51:22;;;;;;;26.60;14.87;;;7.10;99.90;;;;;;5023955;28;20197;-66
2023/02/05 04:54:31;;;;;;;23.47;14.90;;;7.10;99.90;;;;;;5023001;28;20263;-66
2023/02/05 04:57:39;;;;;;;28.70;15.53;;;7.10;99.90;;;;;;5022243;28;20299;-66
2023/02/05 05:00:47;;;;;;;32.87;17.00;;;7.00;99.90;;;;;;5028783;28;20197;-66
2023/02/05 05:03:57;;;;;;;29.53;17.10;;;7.00;99.90;;;;;;5027004;28;20225;-66
2023/02/05 05:06:40;;;;;;;31.13;17.27;;;7.00;99.90;;;;;;5038492;28;20225;-66
2023/02/05 05:09:50;;;;;;;36.13;17.93;;;7.00;99.90;;;;;;5023868;28;20684;-66
2023/02/05 05:12:59;;;;;;;32.70;17.40;;;6.90;99.90;;;;;;5033571;28;20544;-66
2023/02/05 05:16:09;;;;;;;31.83;18.47;;;6.90;99.90;;;;;;5029386;28;20225;-66
2023/02/05 05:19:19;;;;;;;30.03;17.83;;;6.90;99.90;;;;;;5043747;28;20193;-65
2023/02/05 05:22:27;;;;;;;34.33;18.90;;;6.90;99.90;;;;;;5031220;28;20209;-66
2023/02/05 05:25:42;;;;;;;33.53;19.33;;;7.00;99.90;;;;;;5031040;28;20185;-66
2023/02/05 05:28:54;;;;;;;29.30;18.40;;;7.00;99.90;;;;;;5036876;28;20202;-66
2023/02/05 05:32:02;;;;;;;35.97;20.03;;;7.00;99.90;;;;;;5038447;28;20251;-66
2023/02/05 05:35:12;;;;;;;34.63;18.90;;;7.00;99.90;;;;;;5028960;28;20595;-66
2023/02/05 05:38:20;;;;;;;39.90;21.60;;;7.00;99.90;;;;;;5031971;28;20213;-66
2023/02/05 05:44:54;;;;;;;37.53;20.23;;;7.00;99.90;;;;;;5024887;28;20243;-66
2023/02/05 05:48:03;;;;;;;34.90;19.30;;;7.00;99.90;;;;;;5031002;28;20276;-66
2023/02/05 05:51:12;;;;;;;31.23;19.17;;;7.00;99.90;;;;;;5027961;28;20233;-66
2023/02/05 05:54:21;;;;;;;36.40;18.13;;;7.10;99.90;;;;;;5025350;28;20228;-66
2023/02/05 05:57:29;;;;;;;33.53;19.20;;;7.10;99.90;;;;;;5038498;28;20599;-66
2023/02/05 06:00:39;;;;;;;32.50;18.73;;;7.10;99.90;;;;;;5028431;28;20197;-66
2023/02/05 06:03:47;;;;;;;30.10;17.10;;;7.10;99.90;;;;;;5029874;28;20205;-66
2023/02/05 06:06:58;;;;;;;22.93;14.73;;;7.20;99.90;;;;;;5030698;28;20217;-66
2023/02/05 06:10:07;;;;;;;19.40;8.73;;;7.20;99.90;;;;;;5027715;28;20202;-66
2023/02/05 06:13:15;;;;;;;9.50;7.10;;;7.30;99.90;;;;;;5028231;28;21795;-66
2023/02/05 06:16:23;;;;;;;9.30;5.23;;;7.20;99.90;;;;;;5031329;28;20201;-66
2023/02/05 06:19:32;;;;;;;10.63;4.60;;;7.30;99.90;;;;;;5040179;28;20216;-66
2023/02/05 06:22:41;;;;;;;10.93;4.40;;;7.20;99.90;;;;;;5029627;28;20258;-66
2023/02/05 06:25:50;;;;;;;15.93;3.70;;;7.20;99.90;;;;;;5012502;28;20747;-65
2023/02/05 06:29:01;;;;;;;13.93;3.50;;;7.20;99.90;;;;;;5022625;28;20189;-66
2023/02/05 06:32:09;;;;;;;14.33;3.07;;;7.10;99.90;;;;;;5037043;28;20548;-66
2023/02/05 06:35:15;;;;;;;13.87;2.90;;;7.00;99.90;;;;;;5024455;28;20228;-65
2023/02/05 06:38:24;;;;;;;20.03;2.70;;;7.00;99.90;;;;;;5029815;28;20304;-65
2023/02/05 06:41:31;;;;;;;11.77;2.70;;;7.00;99.90;;;;;;5018087;28;20268;-65
2023/02/05 06:44:38;;;;;;;14.57;2.67;;;6.90;99.90;;;;;;5031189;28;20201;-65
2023/02/05 06:47:45;;;;;;;9.83;2.53;;;6.80;99.90;;;;;;5025967;28;20641;-66
2023/02/05 06:50:52;;;;;;;11.77;2.40;;;6.80;99.90;;;;;;5027407;28;20276;-65
2023/02/05 06:54:01;;;;;;;19.87;2.50;;;6.70;99.90;;;;;;5029585;28;20194;-66
2023/02/05 06:57:08;;;;;;;14.53;2.17;;;6.60;99.90;;;;;;5030996;28;20201;-65
2023/02/05 07:00:16;;;;;;;11.73;2.27;;;6.40;99.90;;;;;;5028522;28;20260;-65
2023/02/05 07:03:23;;;;;;;11.60;2.03;;;6.40;99.90;;;;;;5027121;28;20201;-65
2023/02/05 07:06:30;;;;;;;11.77;2.10;;;6.20;99.90;;;;;;5028187;28;20193;-65
2023/02/05 07:09:38;;;;;;;10.33;2.30;;;6.10;99.90;;;;;;5028744;28;20232;-65
2023/02/05 07:12:47;;;;;;;8.80;2.13;;;6.10;99.90;;;;;;5030730;28;20692;-66
2023/02/05 07:15:54;;;;;;;16.67;2.60;;;6.10;99.90;;;;;;5024482;28;20190;-66
2023/02/05 07:19:01;;;;;;;17.97;2.77;;;6.20;99.90;;;;;;5032078;28;20213;-65
2023/02/05 07:22:09;;;;;;;12.20;2.17;;;6.30;99.90;;;;;;5027781;28;20193;-65
2023/02/05 07:25:18;;;;;;;10.67;2.40;;;6.30;99.90;;;;;;5026793;28;20201;-65
2023/02/05 07:28:25;;;;;;;8.00;2.27;;;6.40;99.90;;;;;;5031787;28;20225;-65
2023/02/05 07:31:32;;;;;;;16.63;2.47;;;6.40;99.90;;;;;;5028286;28;20276;-65
2023/02/05 07:34:39;;;;;;;12.50;2.27;;;6.50;99.90;;;;;;5028108;28;20259;-65
2023/02/05 07:37:45;;;;;;;14.27;2.80;;;6.40;99.90;;;;;;5028415;28;20221;-65
2023/02/05 07:40:33;;;;;;;8.60;2.33;;;6.50;99.90;;;;;;5022926;28;20217;-65
2023/02/05 07:43:20;;;;;;;18.07;2.27;;;6.60;99.90;;;;;;5022986;28;20330;-65
2023/02/05 07:46:10;;;;;;;12.00;2.40;;;6.60;99.90;;;;;;5025501;28;20205;-65
2023/02/05 07:48:57;;;;;;;19.53;2.37;;;6.70;99.90;;;;;;5028820;28;20213;-65
2023/02/05 07:51:44;;;;;;;17.47;2.70;;;6.70;99.90;;;;;;5033518;28;20213;-65
2023/02/05 07:54:31;;;;;;;13.53;2.30;;;6.70;99.90;;;;;;5026383;28;20571;-65
2023/02/05 07:57:19;;;;;;;10.13;3.23;;;6.70;99.90;;;;;;5025152;28;20492;-65
2023/02/05 08:00:10;;;;;;;9.67;2.30;;;6.80;99.90;;;;;;5024565;28;20197;-65
2023/02/05 08:02:57;;;;;;;12.47;2.40;;;6.80;99.90;;;;;;5031478;28;20205;-65
2023/02/05 08:05:43;;;;;;;17.97;2.43;;;6.80;99.90;;;;;;5024821;28;21146;-65
2023/02/05 08:08:31;;;;;;;17.60;2.83;;;6.90;99.90;;;;;;5025497;28;20245;-65
2023/02/05 08:11:18;;;;;;;14.33;2.27;;;7.00;99.90;;;;;;5030109;28;20300;-65
2023/02/05 08:14:06;;;;;;;7.70;2.67;;;7.20;99.90;;;;;;5027999;28;20209;-65
2023/02/05 08:16:53;;;;;;;22.17;3.20;;;7.30;99.90;;;;;;5024436;28;20225;-65
2023/02/05 08:19:40;;;;;;;13.57;3.00;;;7.30;99.90;;;;;;5029679;28;20225;-65
2023/02/05 08:22:28;;;;;;;21.87;3.40;;;7.30;99.90;;;;;;5020921;28;20244;-65
2023/02/05 08:25:15;;;;;;;16.37;2.90;;;7.40;99.90;;;;;;5025995;28;20634;-65
2023/02/05 08:28:01;;;;;;;15.70;3.40;;;7.40;99.90;;;;;;5024249;28;20209;-65
2023/02/05 08:30:50;;;;;;;22.07;4.03;;;7.40;99.90;;;;;;5027826;28;20202;-65
2023/02/05 08:33:37;;;;;;;13.37;3.60;;;7.50;99.90;;;;;;5022931;28;20309;-65
2023/02/05 08:36:23;;;;;;;11.47;3.30;;;7.40;99.90;;;;;;5023700;28;20233;-65
2023/02/05 08:39:10;;;;;;;18.87;3.77;;;7.40;99.90;;;;;;5027805;28;20228;-65
2023/02/05 08:41:57;;;;;;;18.93;3.40;;;7.40;99.90;;;;;;5026469;28;20221;-65
2023/02/05 08:44:47;;;;;;;23.60;4.43;;;7.40;99.90;;;;;;5029634;28;20217;-65
2023/02/05 08:47:35;;;;;;;23.63;3.73;;;7.40;99.90;;;;;;5033289;28;20671;-65
2023/02/05 08:50:23;;;;;;;15.70;3.87;;;7.40;99.90;;;;;;5029628;28;20229;-65
2023/02/05 08:53:09;;;;;;;20.17;4.10;;;7.40;99.90;;;;;;5017719;28;20763;-65
2023/02/05 08:55:58;;;;;;;15.47;4.03;;;7.50;99.90;;;;;;5030214;28;20643;-65
2023/02/05 08:58:44;;;;;;;20.57;3.73;;;7.50;99.90;;;;;;5033179;28;20309;-65
2023/02/05 09:01:32;;;;;;;19.07;3.40;;;7.60;99.90;;;;;;5027954;28;20214;-65
2023/02/05 09:04:22;;;;;;;17.63;4.10;;;7.60;99.90;;;;;;5026295;28;20209;-65
2023/02/05 09:07:09;;;;;;;24.90;4.73;;;7.60;99.90;;;;;;5032968;28;20213;-65
2023/02/05 09:09:56;;;;;;;18.73;4.30;;;7.60;99.90;;;;;;5028104;28;20248;-65
2023/02/05 09:12:42;;;;;;;17.70;4.07;;;7.60;99.90;;;;;;5031422;28;20667;-65
2023/02/05 09:15:30;;;;;;;22.00;3.50;;;7.60;99.90;;;;;;5032265;28;20217;-65
2023/02/05 09:18:17;;;;;;;20.37;3.77;;;7.50;99.90;;;;;;5032855;28;20296;-65
2023/02/05 09:21:08;;;;;;;21.63;4.10;;;7.60;99.90;;;;;;5026944;28;20220;-65
2023/02/05 09:23:56;;;;;;;16.67;3.17;;;7.80;99.90;;;;;;5031333;28;20197;-65
2023/02/05 09:26:43;;;;;;;25.17;4.30;;;8.00;99.90;;;;;;5027938;28;20214;-65
2023/02/05 09:29:30;;;;;;;16.93;3.97;;;8.10;99.90;;;;;;5035451;28;20575;-65
2023/02/05 09:32:17;;;;;;;21.47;3.53;;;8.20;99.90;;;;;;5024944;28;20221;-65
2023/02/05 09:35:04;;;;;;;20.20;3.83;;;8.20;99.90;;;;;;5030521;28;20209;-65
2023/02/05 09:37:53;;;;;;;30.90;4.47;;;8.20;99.90;;;;;;5033203;28;20253;-65
2023/02/05 09:40:55;;;;;;;20.70;3.93;;;8.20;99.90;;;;;;5026645;28;20209;-65
2023/02/05 09:43:50;;;;;;;29.80;4.50;;;8.20;99.90;;;;;;5023514;28;20214;-65
2023/02/05 09:46:46;;;;;;;23.60;4.23;;;8.20;99.90;;;;;;5031353;28;20201;-65
2023/02/05 09:49:38;;;;;;;19.33;3.63;;;8.20;99.90;;;;;;5027396;28;20290;-65
2023/02/05 09:52:30;;;;;;;33.20;5.00;;;8.20;99.90;;;;;;5034727;28;20662;-65
2023/02/05 09:55:23;;;;;;;32.17;4.37;;;8.00;99.90;;;;;;5022787;28;20217;-65
2023/02/05 09:58:15;;;;;;;25.83;4.40;;;7.90;99.90;;;;;;5024095;28;20225;-65
2023/02/05 10:01:06;;;;;;;24.30;5.03;;;7.90;99.90;;;;;;5027558;28;20205;-65
2023/02/05 10:03:58;;;;;;;20.50;5.20;;;8.10;99.90;;;;;;5029231;28;20822;-65
2023/02/05 10:07:08;;;;;;;22.13;4.47;;;8.20;99.90;;;;;;5023949;28;20965;-65
2023/02/05 10:10:23;;;;;;;27.70;4.13;;;8.40;99.90;;;;;;5027919;28;20233;-65
2023/02/05 10:13:27;;;;;;;18.83;3.87;;;8.60;99.90;;;;;;5031416;28;20633;-65
2023/02/05 10:16:34;;;;;;;32.33;4.83;;;9.00;99.90;;;;;;5034235;28;20311;-65
2023/02/05 10:19:51;;;;;;;23.80;4.33;;;9.30;99.90;;;;;;5021406;28;20209;-65
2023/02/05 10:22:45;;;;;;;23.63;4.00;;;9.50;99.90;;;;;;5026281;28;20216;-65
2023/02/05 10:25:50;;;;;;;23.47;4.30;;;9.40;99.90;;;;;;5026328;28;20225;-65
2023/02/05 10:29:09;;;;;;;16.60;3.87;;;9.40;99.90;;;;;;5026777;28;20216;-65
2023/02/05 10:32:09;;;;;;;21.73;4.60;;;9.20;99.90;;;;;;5031098;28;20267;-65
2023/02/05 10:35:01;;;;;;;20.47;3.83;;;9.20;99.90;;;;;;5021106;28;20695;-65
2023/02/05 10:37:52;;;;;;;21.13;3.67;;;9.10;99.90;;;;;;5029364;28;20209;-65
2023/02/05 10:40:45;;;;;;;32.37;4.37;;;9.00;99.90;;;;;;5022298;28;20634;-65
2023/02/05 10:43:38;;;;;;;22.03;4.03;;;9.00;99.90;;;;;;5021315;28;20222;-65
2023/02/05 10:46:30;;;;;;;19.57;4.30;;;9.00;99.90;;;;;;5029692;28;20586;-65
2023/02/05 10:49:24;;;;;;;25.83;4.00;;;9.20;99.90;;;;;;5027962;28;20738;-65
2023/02/05 10:52:12;;;;;;;26.70;4.43;;;9.20;99.90;;;;;;5014899;28;20225;-65
2023/02/05 10:55:00;;;;;;;25.40;3.67;;;9.20;99.90;;;;;;5022346;28;20217;-65
2023/02/05 10:57:48;;;;;;;26.93;4.77;;;9.20;99.90;;;;;;5027910;28;20214;-65
2023/02/05 11:00:35;;;;;;;28.30;4.57;;;9.10;99.90;;;;;;5021419;28;20718;-65
2023/02/05 11:03:23;;;;;;;17.93;3.90;;;9.10;99.90;;;;;;5035331;28;20197;-65
2023/02/05 11:06:11;;;;;;;22.73;3.97;;;9.40;99.90;;;;;;5024821;28;20625;-65
2023/02/05 11:08:58;;;;;;;17.13;4.40;;;9.80;99.90;;;;;;5017048;28;20249;-65
2023/02/05 11:11:51;;;;;;;19.40;4.03;;;9.90;99.90;;;;;;5028230;28;20213;-65
2023/02/05 11:14:43;;;;;;;21.93;4.00;;;9.80;99.90;;;;;;5027977;28;20222;-65
2023/02/05 11:17:34;;;;;;;22.50;4.83;;;9.90;99.90;;;;;;5033832;28;20210;-65
2023/02/05 11:20:32;;;;;;;23.57;4.17;;;10.00;99.90;;;;;;5022724;28;20238;-65
2023/02/05 11:23:22;;;;;;;18.77;3.97;;;10.10;99.90;;;;;;5016100;28;20209;-65
2023/02/05 11:26:17;;;;;;;16.53;4.00;;;10.00;99.90;;;;;;5020360;28;20205;-65
2023/02/05 11:29:19;;;;;;;21.47;4.00;;;9.80;99.90;;;;;;5021053;28;20664;-65
2023/02/05 11:32:18;;;;;;;27.43;4.27;;;9.90;99.90;;;;;;5021285;28;20255;-65
2023/02/05 11:35:17;;;;;;;17.17;3.97;;;9.90;99.90;;;;;;5022010;28;20233;-65
2023/02/05 11:38:09;;;;;;;17.63;3.60;;;9.90;99.90;;;;;;5023629;28;20201;-65
2023/02/05 11:40:58;;;;;;;27.63;4.00;;;10.00;99.90;;;;;;5022727;28;20213;-65
2023/02/05 11:43:50;;;;;;;23.60;4.33;;;10.00;99.90;;;;;;5020519;28;20838;-65
2023/02/05 11:46:44;;;;;;;32.50;4.63;;;10.00;99.90;;;;;;5021963;28;20213;-65
2023/02/05 11:49:35;;;;;;;13.97;3.83;;;10.10;99.90;;;;;;5020590;28;20233;-65
2023/02/05 11:52:27;;;;;;;29.87;4.30;;;10.00;99.90;;;;;;5022554;28;20217;-65
2023/02/05 11:55:25;;;;;;;30.30;4.10;;;9.90;99.90;;;;;;5018843;28;20209;-65
2023/02/05 11:58:22;;;;;;;18.33;4.00;;;9.70;99.90;;;;;;5019645;28;20683;-65
2023/02/05 12:01:24;;;;;;;20.10;4.17;;;9.50;99.90;;;;;;5028691;28;20296;-65
2023/02/05 12:04:18;;;;;;;20.40;4.20;;;9.50;99.90;;;;;;5023641;28;20911;-65
2023/02/05 12:07:14;;;;;;;23.70;4.80;;;9.90;99.90;;;;;;5023440;28;20205;-65
2023/02/05 12:10:01;;;;;;;23.87;4.10;;;10.50;99.90;;;;;;5028149;28;20561;-65
2023/02/05 12:13:02;;;;;;;21.73;3.77;;;10.40;99.90;;;;;;5020199;28;20209;-65
2023/02/05 12:15:59;;;;;;;19.70;3.80;;;10.30;99.90;;;;;;5024077;28;20241;-65
2023/02/05 12:19:01;;;;;;;17.53;3.63;;;10.00;99.90;;;;;;5023997;28;20228;-65
2023/02/05 12:21:51;;;;;;;20.13;3.73;;;9.90;99.90;;;;;;5027045;28;20666;-65
2023/02/05 12:25:06;;;;;;;28.33;4.37;;;9.80;99.90;;;;;;5033514;28;20214;-65
2023/02/05 12:28:08;;;;;;;22.13;4.00;;;9.90;99.90;;;;;;5019429;28;20221;-65
2023/02/05 12:31:04;;;;;;;21.47;4.13;;;9.90;99.90;;;;;;5021758;28;20225;-65
2023/02/05 12:34:23;;;;;;;22.40;3.77;;;9.90;99.90;;;;;;5027389;28;20225;-65
2023/02/05 12:37:20;;;;;;;19.00;3.57;;;10.00;99.90;;;;;;5030838;28;20225;-65
2023/02/05 12:40:21;;;;;;;24.30;4.20;;;10.10;99.90;;;;;;5027401;28;20300;-65
2023/02/05 12:43:23;;;;;;;15.67;3.90;;;10.00;99.90;;;;;;5039975;28;20197;-65
2023/02/05 12:46:33;;;;;;;21.70;4.80;;;10.00;99.90;;;;;;5018833;28;20590;-65
2023/02/05 12:49:34;;;;;;;26.33;4.10;;;10.10;99.90;;;;;;5023914;28;20233;-65
2023/02/05 12:52:36;;;;;;;19.70;4.17;;;9.90;99.90;;;;;;5032777;28;20225;-65
2023/02/05 12:55:37;;;;;;;24.00;3.83;;;9.80;99.90;;;;;;5023280;28;20227;-65
2023/02/05 12:58:35;;;;;;;18.57;3.57;;;9.80;99.90;;;;;;5029278;28;20209;-65
2023/02/05 13:01:37;;;;;;;17.13;3.80;;;9.80;99.90;;;;;;5027066;28;20243;-65
2023/02/05 13:04:28;;;;;;;26.60;4.27;;;9.70;99.90;;;;;;5028302;28;20224;-65
2023/02/05 13:07:26;;;;;;;16.13;4.10;;;9.80;99.90;;;;;;5036300;28;20213;-65
2023/02/05 13:10:18;;;;;;;21.33;3.93;;;9.80;99.90;;;;;;5028746;28;20240;-65
2023/02/05 13:13:14;;;;;;;24.60;4.60;;;9.70;99.90;;;;;;5034657;28;20209;-65
2023/02/05 13:16:05;;;;;;;23.50;4.17;;;9.70;99.90;;;;;;5025616;28;20224;-65
2023/02/05 13:18:58;;;;;;;21.10;3.93;;;9.80;99.90;;;;;;5023946;28;20218;-66
2023/02/05 13:31:20;;;;;;;22.00;3.73;;;9.80;99.90;;;;;;5025943;28;20300;-65
2023/02/05 13:34:08;;;;;;;16.63;3.73;;;9.70;99.90;;;;;;5028882;28;20479;-65
2023/02/05 13:37:12;;;;;;;29.33;4.83;;;9.50;99.90;;;;;;5033343;28;20675;-65
2023/02/05 13:40:29;;;;;;;17.30;3.80;;;9.40;99.90;;;;;;5023016;28;20205;-65
2023/02/05 13:43:52;;;;;;;19.10;3.80;;;9.30;99.90;;;;;;5026109;28;20566;-65
2023/02/05 13:46:57;;;;;;;24.07;4.90;;;9.50;99.90;;;;;;5023199;28;20225;-65
2023/02/05 13:50:35;;;;;;;29.60;4.90;;;9.50;99.90;;;;;;5028431;28;20773;-65
2023/02/05 13:53:37;;;;;;;20.40;4.20;;;9.40;99.90;;;;;;4966721;28;20226;-64
2023/02/05 13:56:45;;;;;;;21.20;4.57;;;9.30;99.90;;;;;;5027315;28;20213;-65
2023/02/05 13:59:37;;;;;;;22.37;3.97;;;9.30;99.90;;;;;;5034004;28;20198;-65
2023/02/05 14:02:34;;;;;;;23.90;4.37;;;9.40;99.90;;;;;;5020461;28;20683;-65
2023/02/05 14:05:29;;;;;;;25.00;4.23;;;9.50;99.90;;;;;;5025742;28;20308;-65
2023/02/05 14:08:23;;;;;;;23.00;3.90;;;9.60;99.90;;;;;;5027919;28;20229;-65
2023/02/05 14:11:11;;;;;;;21.50;4.10;;;9.50;99.90;;;;;;5024564;28;20292;-65
2023/02/05 14:14:29;;;;;;;21.47;3.90;;;9.40;99.90;;;;;;5032241;28;20212;-65
2023/02/05 14:17:53;;;;;;;30.30;4.30;;;9.30;99.90;;;;;;5023132;28;20233;-65
2023/02/05 14:20:44;;;;;;;29.30;3.97;;;9.30;99.90;;;;;;5023143;28;20233;-65
2023/02/05 14:23:54;;;;;;;16.80;3.83;;;9.20;99.90;;;;;;5019003;28;20622;-66
2023/02/05 14:26:50;;;;;;;18.80;3.50;;;9.20;99.90;;;;;;5030555;28;20655;-65
2023/02/05 14:29:41;;;;;;;18.77;3.90;;;9.10;99.90;;;;;;5021173;28;20213;-65
2023/02/05 14:32:58;;;;;;;20.47;3.70;;;9.00;99.90;;;;;;5023881;28;20621;-65
2023/02/05 14:35:47;;;;;;;15.30;3.80;;;9.00;99.90;;;;;;5028700;28;20210;-65
2023/02/05 14:38:37;;;;;;;22.17;4.10;;;9.10;99.90;;;;;;5023237;28;20585;-65
2023/02/05 14:41:30;;;;;;;20.57;3.33;;;9.20;99.90;;;;;;5021978;28;20221;-65
2023/02/05 14:44:27;;;;;;;26.23;4.50;;;9.30;99.90;;;;;;5024529;28;20297;-65
2023/02/05 14:47:24;;;;;;;25.00;4.10;;;9.30;99.90;;;;;;5022115;28;20224;-65
2023/02/05 14:50:20;;;;;;;20.30;3.93;;;9.20;99.90;;;;;;5015891;28;20284;-65
2023/02/05 14:53:18;;;;;;;22.47;3.80;;;9.10;99.90;;;;;;5021984;28;20223;-65
2023/02/05 14:56:06;;;;;;;20.83;3.93;;;9.00;99.90;;;;;;5020844;28;20225;-65
2023/02/05 14:59:00;;;;;;;21.10;3.80;;;9.00;99.90;;;;;;5026984;28;20794;-65